createdAt,value
2019-06-01T00:01:53.890Z,16
2019-06-01T00:11:57.338Z,15.9
2019-06-01T00:22:00.819Z,15.9
2019-06-01T00:32:04.287Z,15.8
2019-06-01T00:42:07.763Z,15.7
2019-06-01T00:52:11.207Z,15.6
2019-06-01T01:02:14.882Z,15.3
2019-06-01T01:12:18.338Z,15
2019-06-01T01:22:21.776Z,15
2019-06-01T01:32:25.273Z,14.9
2019-06-01T01:42:28.746Z,14.8
2019-06-01T01:52:32.226Z,14.7
2019-06-01T02:02:35.715Z,14.8
2019-06-01T02:12:39.203Z,14.8
2019-06-01T02:22:42.652Z,14.5
2019-06-01T02:32:46.134Z,14.6
2019-06-01T02:42:49.598Z,14.8
2019-06-01T02:52:53.100Z,14.8
2019-06-01T03:02:56.610Z,14.6
2019-06-01T03:13:00.156Z,14.2
2019-06-01T03:23:03.774Z,14.4
2019-06-01T03:33:08.498Z,14.3
2019-06-01T03:43:14.184Z,14.2
2019-06-01T03:53:17.653Z,14.3
2019-06-01T04:03:21.160Z,14.3
2019-06-01T04:13:24.637Z,14.1
2019-06-01T04:23:28.104Z,14.1
2019-06-01T04:33:31.582Z,14.3
2019-06-01T04:43:35.043Z,14.5
2019-06-01T04:53:38.507Z,14.5
2019-06-01T05:03:42.010Z,15.2
2019-06-01T05:13:45.478Z,14.9
2019-06-01T05:23:48.927Z,16.1
2019-06-01T05:33:52.357Z,15.9
2019-06-01T05:43:55.835Z,15.9
2019-06-01T05:53:59.358Z,16.5
2019-06-01T06:04:02.830Z,17.3
2019-06-01T06:14:06.302Z,18.1
2019-06-01T06:24:09.787Z,18.9
2019-06-01T06:34:13.325Z,19.4
2019-06-01T06:44:16.819Z,20.1
2019-06-01T06:54:20.311Z,20.6
2019-06-01T07:04:25.323Z,21.1
2019-06-01T07:14:28.857Z,21.4
2019-06-01T07:24:32.299Z,21.6
2019-06-01T07:34:41.447Z,22.4
2019-06-01T07:44:46.519Z,22.3
2019-06-01T07:54:50.042Z,22.6
2019-06-01T08:04:54.726Z,22.9
2019-06-01T08:14:58.478Z,23.1
2019-06-01T08:25:01.951Z,23.7
2019-06-01T08:35:08.835Z,23.7
2019-06-01T08:45:13.248Z,24.2
2019-06-01T08:55:16.708Z,24.5
2019-06-01T09:05:24.124Z,24.4
2019-06-01T09:15:35.543Z,24.5
2019-06-01T09:25:39.217Z,24.5
2019-06-01T09:35:53.876Z,24.6
2019-06-01T09:45:59.988Z,25.1
2019-06-01T09:56:03.455Z,24.9
2019-06-01T10:06:06.912Z,25.2
2019-06-01T10:16:10.371Z,25.2
2019-06-01T10:26:13.844Z,24.9
2019-06-01T10:36:20.901Z,25.6
2019-06-01T10:46:25.151Z,25.9
2019-06-01T10:56:28.694Z,26.2
2019-06-01T11:06:37.572Z,25.6
2019-06-01T11:16:56.137Z,25.8
2019-06-01T11:27:00.427Z,26.1
2019-06-01T11:37:05.500Z,26
2019-06-01T11:47:09.301Z,26
2019-06-01T11:57:12.827Z,26.7
2019-06-01T12:07:18.071Z,26
2019-06-01T12:17:22.072Z,26.5
2019-06-01T12:27:25.558Z,26.3
2019-06-01T12:30:50.125Z,26.6
2019-06-01T12:40:53.549Z,26.5
2019-06-01T12:50:57.038Z,26.2
2019-06-01T13:01:02.791Z,26
2019-06-01T13:11:06.391Z,26.1
2019-06-01T13:21:09.868Z,25.9
2019-06-01T13:31:13.334Z,25.7
2019-06-01T13:41:16.759Z,25.8
2019-06-01T13:51:20.257Z,25.7
2019-06-01T14:01:23.724Z,25.7
2019-06-01T14:11:27.185Z,25.8
2019-06-01T14:21:30.658Z,25.9
2019-06-01T14:31:34.137Z,25.6
2019-06-01T14:41:37.585Z,25.4
2019-06-01T14:51:41.042Z,25.6
2019-06-01T15:01:44.519Z,25.4
2019-06-01T15:11:48.964Z,25.5
2019-06-01T15:21:54.129Z,25.4
2019-06-01T15:31:58.014Z,25.4
2019-06-01T15:42:01.564Z,25.3
2019-06-01T15:52:05.029Z,25.2
2019-06-01T16:02:08.677Z,25.3
2019-06-01T16:12:12.154Z,25.2
2019-06-01T16:22:15.645Z,24.9
2019-06-01T16:32:19.105Z,25
2019-06-01T16:42:22.601Z,25
2019-06-01T16:52:26.112Z,24.9
2019-06-01T17:02:29.572Z,24.9
2019-06-01T17:12:33.084Z,24.8
2019-06-01T17:22:36.548Z,24.7
2019-06-01T17:32:39.988Z,24.6
2019-06-01T17:42:43.487Z,24.5
2019-06-01T17:52:46.919Z,24.3
2019-06-01T18:02:50.413Z,24.2
2019-06-01T18:12:53.916Z,24.2
2019-06-01T18:22:57.399Z,24.2
2019-06-01T18:33:00.903Z,24
2019-06-01T18:43:05.757Z,23.9
2019-06-01T18:53:12.121Z,23.7
2019-06-01T19:03:15.743Z,23.6
2019-06-01T19:13:19.216Z,23.3
2019-06-01T19:23:23.065Z,23
2019-06-01T19:33:26.601Z,22.6
2019-06-01T19:43:30.099Z,22.4
2019-06-01T19:53:33.552Z,22.1
2019-06-01T20:03:37.029Z,21.8
2019-06-01T20:13:40.492Z,21.6
2019-06-01T20:23:43.993Z,21.3
2019-06-01T20:33:47.468Z,21.1
2019-06-01T20:43:50.934Z,20.9
2019-06-01T20:53:54.406Z,20.7
2019-06-01T21:03:57.873Z,20.5
2019-06-01T21:14:01.337Z,20.3
2019-06-01T21:24:04.801Z,20
2019-06-01T21:34:08.304Z,19.9
2019-06-01T21:44:11.781Z,19.7
2019-06-01T21:54:16.005Z,19.4
2019-06-01T22:04:20.720Z,19.3
2019-06-01T22:14:25.751Z,19.2
2019-06-01T22:24:30.911Z,19.1
2019-06-01T22:34:34.354Z,18.9
2019-06-01T22:44:37.848Z,18.9
2019-06-01T22:54:41.287Z,18.8
2019-06-01T23:04:44.755Z,18.6
2019-06-01T23:14:48.245Z,18.5
2019-06-01T23:24:51.707Z,18.4
2019-06-01T23:34:55.180Z,18.3
2019-06-01T23:44:58.616Z,18.1
2019-06-01T23:55:02.092Z,18
